createdAt,value
2017-12-02T00:00:58.569Z,17.40
2017-12-02T00:02:01.101Z,17.20
2017-12-02T00:03:04.415Z,17.98
2017-12-02T00:04:06.938Z,18.02
2017-12-02T00:05:10.243Z,18.00
2017-12-02T00:06:13.541Z,17.50
2017-12-02T00:07:16.116Z,18.20
2017-12-02T00:08:18.633Z,17.75
2017-12-02T00:09:21.193Z,18.48
2017-12-02T00:10:23.717Z,16.77
2017-12-02T00:11:26.233Z,19.75
2017-12-02T00:12:28.750Z,18.02
2017-12-02T00:13:31.272Z,19.40
2017-12-02T00:14:34.593Z,18.40
2017-12-02T00:15:37.110Z,18.33
2017-12-02T00:16:39.650Z,16.58
2017-12-02T00:17:42.214Z,17.73
2017-12-02T00:18:44.784Z,19.05
2017-12-02T00:19:47.302Z,19.35
2017-12-02T00:20:50.602Z,18.92
2017-12-02T00:21:53.129Z,17.73
2017-12-02T00:22:55.652Z,18.40
2017-12-02T00:23:58.203Z,18.37
2017-12-02T00:25:00.780Z,19.75
2017-12-02T00:26:04.029Z,18.23
2017-12-02T00:27:07.321Z,19.95
2017-12-02T00:28:10.629Z,20.65
2017-12-02T00:29:13.198Z,20.05
2017-12-02T00:30:15.720Z,20.62
2017-12-02T00:31:18.244Z,19.92
2017-12-02T00:32:20.787Z,20.37
2017-12-02T00:33:23.317Z,20.27
2017-12-02T00:34:25.875Z,19.58
2017-12-02T00:35:28.430Z,20.65
2017-12-02T00:36:30.941Z,21.15
2017-12-02T00:37:33.459Z,20.27
2017-12-02T00:38:35.972Z,20.10
2017-12-02T00:39:38.501Z,19.37
2017-12-02T00:40:41.058Z,19.80
2017-12-02T00:41:43.590Z,20.27
2017-12-02T00:42:46.108Z,21.30
2017-12-02T00:43:48.629Z,20.92
2017-12-02T00:44:51.144Z,18.77
2017-12-02T00:45:54.471Z,18.37
2017-12-02T00:46:57.028Z,21.55
2017-12-02T00:47:59.546Z,20.42
2017-12-02T00:49:02.068Z,18.80
2017-12-02T00:50:04.593Z,19.90
2017-12-02T00:51:07.886Z,20.52
2017-12-02T00:52:11.218Z,19.45
2017-12-02T00:53:13.925Z,20.30
2017-12-02T00:54:16.458Z,19.98
2017-12-02T00:55:18.976Z,20.02
2017-12-02T00:56:22.265Z,18.45
2017-12-02T00:57:25.602Z,18.83
2017-12-02T00:58:28.146Z,19.62
2017-12-02T00:59:30.666Z,19.20
2017-12-02T01:00:33.952Z,19.20
2017-12-02T01:01:37.244Z,19.25
2017-12-02T01:02:40.568Z,20.20
2017-12-02T01:03:43.090Z,19.15
2017-12-02T01:04:46.387Z,20.17
2017-12-02T01:05:48.926Z,18.27
2017-12-02T01:06:51.446Z,19.70
2017-12-02T01:07:54.009Z,18.15
2017-12-02T01:08:56.527Z,20.12
2017-12-02T01:09:59.044Z,19.00
2017-12-02T01:11:01.567Z,19.48
2017-12-02T01:12:04.860Z,18.60
2017-12-02T01:13:08.169Z,19.17
2017-12-02T01:14:10.738Z,18.37
2017-12-02T01:15:13.260Z,19.10
2017-12-02T01:16:16.561Z,20.20
2017-12-02T01:17:19.088Z,19.23
2017-12-02T01:18:21.622Z,19.17
2017-12-02T01:19:24.176Z,19.50
2017-12-02T01:20:26.696Z,19.12
2017-12-02T01:21:29.265Z,19.30
2017-12-02T01:22:31.790Z,18.23
2017-12-02T01:23:34.312Z,18.42
2017-12-02T01:24:37.605Z,19.00
2017-12-02T01:25:40.890Z,19.90
2017-12-02T01:26:44.219Z,18.62
2017-12-02T01:27:46.746Z,20.58
2017-12-02T01:28:49.277Z,20.77
2017-12-02T01:29:51.790Z,20.45
2017-12-02T01:30:54.301Z,20.95
2017-12-02T01:31:56.858Z,21.45
2017-12-02T01:32:59.373Z,22.48
2017-12-02T01:34:01.923Z,20.37
2017-12-02T01:35:05.368Z,20.40
2017-12-02T01:36:07.918Z,20.62
2017-12-02T01:37:10.437Z,20.83
2017-12-02T01:38:12.949Z,21.70
2017-12-02T01:39:15.505Z,22.33
2017-12-02T01:40:18.024Z,20.50
2017-12-02T01:41:20.541Z,19.90
2017-12-02T01:42:23.059Z,21.05
2017-12-02T01:43:25.613Z,19.85
2017-12-02T01:44:28.158Z,21.27
2017-12-02T01:45:30.705Z,20.33
2017-12-02T01:46:33.222Z,20.80
2017-12-02T01:47:35.746Z,21.00
2017-12-02T01:48:38.294Z,20.48
2017-12-02T01:49:40.809Z,19.92
2017-12-02T01:50:43.365Z,20.98
2017-12-02T01:51:45.891Z,21.10
2017-12-02T01:52:48.410Z,20.10
2017-12-02T01:53:50.934Z,20.75
2017-12-02T01:54:53.494Z,20.75
2017-12-02T01:55:56.014Z,21.20
2017-12-02T01:56:58.533Z,21.37
2017-12-02T01:58:01.061Z,22.35
2017-12-02T01:59:04.337Z,23.27
2017-12-02T02:00:06.897Z,22.02
2017-12-02T02:01:09.431Z,21.90
2017-12-02T02:02:12.717Z,22.02
2017-12-02T02:03:15.251Z,20.67
2017-12-02T02:04:17.805Z,21.98
2017-12-02T02:05:21.085Z,22.33
2017-12-02T02:06:24.368Z,20.75
2017-12-02T02:07:26.881Z,21.42
2017-12-02T02:08:29.434Z,19.98
2017-12-02T02:09:32.030Z,21.27
2017-12-02T02:10:34.545Z,20.42
2017-12-02T02:11:37.101Z,21.75
2017-12-02T02:12:40.377Z,22.62
2017-12-02T02:13:43.668Z,22.45
2017-12-02T02:14:46.986Z,21.62
2017-12-02T02:15:49.501Z,21.02
2017-12-02T02:16:52.032Z,21.60
2017-12-02T02:17:54.549Z,22.20
2017-12-02T02:18:57.860Z,21.55
2017-12-02T02:20:00.378Z,22.50
2017-12-02T02:21:02.912Z,22.15
2017-12-02T02:22:05.470Z,22.05
2017-12-02T02:23:07.990Z,21.60
2017-12-02T02:24:11.265Z,22.70
2017-12-02T02:25:13.940Z,21.30
2017-12-02T02:26:16.458Z,21.90
2017-12-02T02:27:19.026Z,22.05
2017-12-02T02:28:21.541Z,22.90
2017-12-02T02:29:24.093Z,21.12
2017-12-02T02:30:26.617Z,21.90
2017-12-02T02:31:29.148Z,22.17
2017-12-02T02:32:32.497Z,22.65
2017-12-02T02:33:34.985Z,24.33
2017-12-02T02:34:38.308Z,24.23
2017-12-02T02:35:40.830Z,24.58
2017-12-02T02:36:43.352Z,21.52
2017-12-02T02:37:45.875Z,22.23
2017-12-02T02:38:49.166Z,23.52
2017-12-02T02:39:51.776Z,21.20
2017-12-02T02:40:54.306Z,22.40
2017-12-02T02:41:56.824Z,21.85
2017-12-02T02:42:59.345Z,22.20
2017-12-02T02:44:01.870Z,22.52
2017-12-02T02:45:04.430Z,21.40
2017-12-02T02:46:06.943Z,21.62
2017-12-02T02:47:09.471Z,20.95
2017-12-02T02:48:11.999Z,22.35
2017-12-02T02:49:14.582Z,22.77
2017-12-02T02:50:17.260Z,21.70
2017-12-02T02:51:19.951Z,20.73
2017-12-02T02:52:22.521Z,21.42
2017-12-02T02:53:25.809Z,21.52
2017-12-02T02:54:29.128Z,21.52
2017-12-02T02:55:31.649Z,20.80
2017-12-02T02:56:34.169Z,20.65
2017-12-02T02:57:36.688Z,23.12
2017-12-02T02:58:40.025Z,20.27
2017-12-02T02:59:42.549Z,20.85
2017-12-02T03:00:45.081Z,21.75
2017-12-02T03:01:47.605Z,20.90
2017-12-02T03:02:50.117Z,21.37
2017-12-02T03:03:52.676Z,21.73
2017-12-02T03:04:55.206Z,21.40
2017-12-02T03:05:57.720Z,21.42
2017-12-02T03:07:00.249Z,21.92
2017-12-02T03:08:02.806Z,22.90
2017-12-02T03:09:05.333Z,22.25
2017-12-02T03:10:08.626Z,21.92
2017-12-02T03:11:11.153Z,22.15
2017-12-02T03:12:13.669Z,20.85
2017-12-02T03:13:16.365Z,22.42
2017-12-02T03:14:18.934Z,21.75
2017-12-02T03:15:21.679Z,21.73
2017-12-02T03:16:24.196Z,21.25
2017-12-02T03:17:26.770Z,21.55
2017-12-02T03:18:29.290Z,21.58
2017-12-02T03:19:31.858Z,21.87
2017-12-02T03:20:34.369Z,21.77
2017-12-02T03:21:36.889Z,22.23
2017-12-02T03:22:39.401Z,20.65
2017-12-02T03:23:41.929Z,20.77
2017-12-02T03:24:44.473Z,21.45
2017-12-02T03:25:47.762Z,22.33
2017-12-02T03:26:50.273Z,21.70
2017-12-02T03:27:52.794Z,21.45
2017-12-02T03:28:55.322Z,23.92
2017-12-02T03:29:58.637Z,20.67
2017-12-02T03:31:01.176Z,21.60
2017-12-02T03:32:04.469Z,22.60
2017-12-02T03:33:07.772Z,22.00
2017-12-02T03:34:10.333Z,20.48
2017-12-02T03:35:12.954Z,22.83
2017-12-02T03:36:15.477Z,22.70
2017-12-02T03:37:18.032Z,22.10
2017-12-02T03:38:20.551Z,22.30
2017-12-02T03:39:23.075Z,19.75
2017-12-02T03:40:25.601Z,22.35
2017-12-02T03:41:28.881Z,21.50
2017-12-02T03:42:31.442Z,21.80
2017-12-02T03:43:33.958Z,22.13
2017-12-02T03:44:36.469Z,23.27
2017-12-02T03:45:38.991Z,21.52
2017-12-02T03:46:41.519Z,22.50
2017-12-02T03:47:44.837Z,21.95
2017-12-02T03:48:47.359Z,20.98
2017-12-02T03:49:49.897Z,21.37
2017-12-02T03:50:52.425Z,20.37
2017-12-02T03:51:54.977Z,20.80
2017-12-02T03:52:58.302Z,20.77
2017-12-02T03:54:00.828Z,21.37
2017-12-02T03:55:04.105Z,21.65
2017-12-02T03:56:07.393Z,21.77
2017-12-02T03:57:10.673Z,21.85
2017-12-02T03:58:13.994Z,20.85
2017-12-02T03:59:16.518Z,22.13
2017-12-02T04:00:19.934Z,21.40
2017-12-02T04:01:22.682Z,20.23
2017-12-02T04:02:25.962Z,20.90
2017-12-02T04:03:29.254Z,22.33
2017-12-02T04:04:31.778Z,20.00
2017-12-02T04:05:34.340Z,20.35
2017-12-02T04:06:36.864Z,19.58
2017-12-02T04:07:39.394Z,19.42
2017-12-02T04:08:41.919Z,20.27
2017-12-02T04:09:44.486Z,20.08
2017-12-02T04:10:47.002Z,20.33
2017-12-02T04:11:49.569Z,22.50
2017-12-02T04:12:52.861Z,20.85
2017-12-02T04:13:56.145Z,21.65
2017-12-02T04:14:59.428Z,20.30
2017-12-02T04:16:02.723Z,21.65
2017-12-02T04:17:05.289Z,20.75
2017-12-02T04:18:07.814Z,21.45
2017-12-02T04:19:10.337Z,19.62
2017-12-02T04:20:12.856Z,20.15
2017-12-02T04:21:15.466Z,21.87
2017-12-02T04:22:18.033Z,19.55
2017-12-02T04:23:20.549Z,19.25
2017-12-02T04:24:23.073Z,21.20
2017-12-02T04:25:25.592Z,21.20
2017-12-02T04:26:28.113Z,19.98
2017-12-02T04:27:30.768Z,21.12
2017-12-02T04:28:33.285Z,19.42
2017-12-02T04:29:35.801Z,20.10
2017-12-02T04:30:38.317Z,21.42
2017-12-02T04:31:40.840Z,22.30
2017-12-02T04:32:43.382Z,20.45
2017-12-02T04:33:45.908Z,21.48
2017-12-02T04:34:48.486Z,21.52
2017-12-02T04:35:51.046Z,21.90
2017-12-02T04:36:53.574Z,20.65
2017-12-02T04:37:56.096Z,20.95
2017-12-02T04:38:59.380Z,20.85
2017-12-02T04:40:02.670Z,19.75
2017-12-02T04:41:05.976Z,22.60
2017-12-02T04:42:08.493Z,21.25
2017-12-02T04:43:11.007Z,21.55
2017-12-02T04:44:13.576Z,19.15
2017-12-02T04:45:16.098Z,20.92
2017-12-02T04:46:18.620Z,22.10
2017-12-02T04:47:21.149Z,21.08
2017-12-02T04:48:24.433Z,21.08
2017-12-02T04:49:27.757Z,21.42
2017-12-02T04:50:30.273Z,21.05
2017-12-02T04:51:33.569Z,22.73
2017-12-02T04:52:36.095Z,19.10
2017-12-02T04:53:38.608Z,21.08
2017-12-02T04:54:41.179Z,21.08
2017-12-02T04:55:43.726Z,21.05
2017-12-02T04:56:47.008Z,21.23
2017-12-02T04:57:50.294Z,22.75
2017-12-02T04:58:53.578Z,20.55
2017-12-02T04:59:56.902Z,20.23
2017-12-02T05:00:59.605Z,21.25
2017-12-02T05:02:02.226Z,21.05
2017-12-02T05:03:04.742Z,20.85
2017-12-02T05:04:07.261Z,20.35
2017-12-02T05:05:09.786Z,20.58
2017-12-02T05:06:12.333Z,20.48
2017-12-02T05:07:14.851Z,22.50
2017-12-02T05:08:17.371Z,20.85
2017-12-02T05:09:19.891Z,21.52
2017-12-02T05:10:22.454Z,21.80
2017-12-02T05:11:24.964Z,21.00
2017-12-02T05:12:27.504Z,20.77
2017-12-02T05:13:30.024Z,20.15
2017-12-02T05:14:33.305Z,21.65
2017-12-02T05:15:36.641Z,20.90
2017-12-02T05:16:39.152Z,21.87
2017-12-02T05:17:42.440Z,21.23
2017-12-02T05:18:45.754Z,20.95
2017-12-02T05:19:48.321Z,21.40
2017-12-02T05:20:50.839Z,21.70
2017-12-02T05:21:53.358Z,21.08
2017-12-02T05:22:55.901Z,20.00
2017-12-02T05:23:58.425Z,21.37
2017-12-02T05:25:00.989Z,20.50
2017-12-02T05:26:03.504Z,20.95
2017-12-02T05:27:06.029Z,20.73
2017-12-02T05:28:08.549Z,21.50
2017-12-02T05:29:11.107Z,19.30
2017-12-02T05:30:13.620Z,19.48
2017-12-02T05:31:16.130Z,19.85
2017-12-02T05:32:18.774Z,21.87
2017-12-02T05:33:21.296Z,21.17
2017-12-02T05:34:23.814Z,20.70
2017-12-02T05:35:27.098Z,19.35
2017-12-02T05:36:30.373Z,21.48
2017-12-02T05:37:32.946Z,20.80
2017-12-02T05:38:36.224Z,22.15
2017-12-02T05:39:39.508Z,21.42
2017-12-02T05:40:42.798Z,20.35
2017-12-02T05:41:45.342Z,21.33
2017-12-02T05:42:47.989Z,19.90
2017-12-02T05:43:50.520Z,21.30
2017-12-02T05:44:53.051Z,21.67
2017-12-02T05:45:55.579Z,22.70
2017-12-02T05:46:58.095Z,21.17
2017-12-02T05:48:01.418Z,21.12
2017-12-02T05:49:03.933Z,21.87
2017-12-02T05:50:06.449Z,20.70
2017-12-02T05:51:09.023Z,20.67
2017-12-02T05:52:11.545Z,22.23
2017-12-02T05:53:14.865Z,21.40
2017-12-02T05:54:17.386Z,20.33
2017-12-02T05:55:19.909Z,21.27
2017-12-02T05:56:22.482Z,20.85
2017-12-02T05:57:25.226Z,21.27
2017-12-02T05:58:27.742Z,20.60
2017-12-02T05:59:30.258Z,20.95
2017-12-02T06:00:32.782Z,21.42
2017-12-02T06:01:35.341Z,20.67
2017-12-02T06:02:37.861Z,20.83
2017-12-02T06:03:40.373Z,21.27
2017-12-02T06:04:42.930Z,22.15
2017-12-02T06:05:45.444Z,20.80
2017-12-02T06:06:47.993Z,21.00
2017-12-02T06:07:51.277Z,22.00
2017-12-02T06:08:54.562Z,21.83
2017-12-02T06:09:57.849Z,22.15
2017-12-02T06:11:01.162Z,22.85
2017-12-02T06:12:03.680Z,21.50
2017-12-02T06:13:06.193Z,21.77
2017-12-02T06:14:08.714Z,22.58
2017-12-02T06:15:11.280Z,22.10
2017-12-02T06:16:13.895Z,22.08
2017-12-02T06:17:16.418Z,21.52
2017-12-02T06:18:19.717Z,21.77
2017-12-02T06:19:22.243Z,22.58
2017-12-02T06:20:24.808Z,20.95
2017-12-02T06:21:27.396Z,22.40
2017-12-02T06:22:29.916Z,23.98
2017-12-02T06:23:32.432Z,21.08
2017-12-02T06:24:35.764Z,21.80
2017-12-02T06:25:38.286Z,21.27
2017-12-02T06:26:41.573Z,22.17
2017-12-02T06:27:44.874Z,21.00
2017-12-02T06:28:47.397Z,21.12
2017-12-02T06:29:49.950Z,21.65
2017-12-02T06:30:52.522Z,21.10
2017-12-02T06:31:55.029Z,20.05
2017-12-02T06:32:58.457Z,22.05
2017-12-02T06:34:00.975Z,21.40
2017-12-02T06:35:04.259Z,21.75
2017-12-02T06:36:07.544Z,22.05
2017-12-02T06:37:10.823Z,21.60
2017-12-02T06:38:14.137Z,24.27
2017-12-02T06:39:16.722Z,29.40
2017-12-02T06:40:19.274Z,27.65
2017-12-02T06:41:21.842Z,26.02
2017-12-02T06:42:24.360Z,23.98
2017-12-02T06:43:26.922Z,23.60
2017-12-02T06:44:29.446Z,21.10
2017-12-02T06:45:31.973Z,20.98
2017-12-02T06:46:35.249Z,21.40
2017-12-02T06:47:38.551Z,21.23
2017-12-02T06:48:41.875Z,20.37
2017-12-02T06:49:44.436Z,19.40
2017-12-02T06:50:46.949Z,19.98
2017-12-02T06:51:49.460Z,20.80
2017-12-02T06:52:51.980Z,21.23
2017-12-02T06:53:54.544Z,20.42
2017-12-02T06:54:57.058Z,20.52
2017-12-02T06:55:59.580Z,19.62
2017-12-02T06:57:02.865Z,19.90
2017-12-02T06:58:06.172Z,21.80
2017-12-02T06:59:08.720Z,19.15
2017-12-02T07:00:12.001Z,21.23
2017-12-02T07:01:15.291Z,20.88
2017-12-02T07:02:18.576Z,19.98
2017-12-02T07:03:21.862Z,18.70
2017-12-02T07:04:25.172Z,20.67
2017-12-02T07:05:27.726Z,18.90
2017-12-02T07:06:30.254Z,19.67
2017-12-02T07:07:32.799Z,21.58
2017-12-02T07:08:35.352Z,21.15
2017-12-02T07:09:37.890Z,19.27
2017-12-02T07:10:40.461Z,18.12
2017-12-02T07:11:42.978Z,18.52
2017-12-02T07:12:45.510Z,17.83
2017-12-02T07:13:48.033Z,19.45
2017-12-02T07:14:51.321Z,18.08
2017-12-02T07:15:54.650Z,19.10
2017-12-02T07:16:57.175Z,19.65
2017-12-02T07:18:00.485Z,18.35
2017-12-02T07:19:03.005Z,18.30
2017-12-02T07:20:05.559Z,19.40
2017-12-02T07:21:08.081Z,17.42
2017-12-02T07:22:10.593Z,19.58
2017-12-02T07:23:13.197Z,19.30
2017-12-02T07:24:15.709Z,20.60
2017-12-02T07:25:18.228Z,18.75
2017-12-02T07:26:20.762Z,20.12
2017-12-02T07:27:23.295Z,20.42
2017-12-02T07:28:25.862Z,19.48
2017-12-02T07:29:28.418Z,20.52
2017-12-02T07:30:30.932Z,20.05
2017-12-02T07:31:33.444Z,19.73
2017-12-02T07:32:35.964Z,19.52
2017-12-02T07:33:38.493Z,20.92
2017-12-02T07:34:41.049Z,19.48
2017-12-02T07:35:43.570Z,19.17
2017-12-02T07:36:46.865Z,22.98
2017-12-02T07:37:50.160Z,19.10
2017-12-02T07:38:52.706Z,21.37
2017-12-02T07:39:56.017Z,19.92
2017-12-02T07:40:58.566Z,20.10
2017-12-02T07:42:01.130Z,19.75
2017-12-02T07:43:04.421Z,19.35
2017-12-02T07:44:06.938Z,20.12
2017-12-02T07:45:09.492Z,17.87
2017-12-02T07:46:12.000Z,18.83
2017-12-02T07:47:15.350Z,17.75
2017-12-02T07:48:17.832Z,17.95
2017-12-02T07:49:20.367Z,17.12
2017-12-02T07:50:22.941Z,14.90
2017-12-02T07:51:25.478Z,15.35
2017-12-02T07:52:27.990Z,15.18
2017-12-02T07:53:30.677Z,16.00
2017-12-02T07:54:33.240Z,16.20
2017-12-02T07:55:35.789Z,15.18
2017-12-02T07:56:38.305Z,15.35
2017-12-02T07:57:40.832Z,15.38
2017-12-02T07:58:43.349Z,14.90
2017-12-02T07:59:45.905Z,15.95
2017-12-02T08:00:48.472Z,14.60
2017-12-02T08:01:51.279Z,14.98
2017-12-02T08:02:53.870Z,15.00
2017-12-02T08:03:57.205Z,15.68
2017-12-02T08:04:59.753Z,15.73
2017-12-02T08:06:03.075Z,15.63
2017-12-02T08:07:05.640Z,16.08
2017-12-02T08:08:08.153Z,16.95
2017-12-02T08:09:10.669Z,15.60
2017-12-02T08:10:13.184Z,17.80
2017-12-02T08:11:15.733Z,16.90
2017-12-02T08:12:18.248Z,16.23
2017-12-02T08:13:20.802Z,15.60
2017-12-02T08:14:24.152Z,15.57
2017-12-02T08:15:26.775Z,16.37
2017-12-02T08:16:35.053Z,16.10
2017-12-02T08:17:38.456Z,16.70
2017-12-02T08:18:41.024Z,15.05
2017-12-02T08:19:43.546Z,16.80
2017-12-02T08:20:46.061Z,17.27
2017-12-02T08:21:48.577Z,16.52
2017-12-02T08:22:51.092Z,16.52
2017-12-02T08:23:53.661Z,15.90
2017-12-02T08:24:56.178Z,17.92
2017-12-02T08:25:58.696Z,19.08
2017-12-02T08:27:01.209Z,17.67
2017-12-02T08:28:03.732Z,17.20
2017-12-02T08:29:06.285Z,17.08
2017-12-02T08:30:08.809Z,20.15
2017-12-02T08:31:11.348Z,16.87
2017-12-02T08:32:13.875Z,17.77
2017-12-02T08:33:16.392Z,16.55
2017-12-02T08:34:18.953Z,18.02
2017-12-02T08:35:21.539Z,18.05
2017-12-02T08:36:24.065Z,16.98
2017-12-02T08:37:26.607Z,17.83
2017-12-02T08:38:29.134Z,17.08
2017-12-02T08:39:31.701Z,16.85
2017-12-02T08:40:34.232Z,16.10
2017-12-02T08:41:36.753Z,16.40
2017-12-02T08:42:40.039Z,17.62
2017-12-02T08:43:43.340Z,19.60
2017-12-02T08:44:45.906Z,17.60
2017-12-02T08:45:48.422Z,18.98
2017-12-02T08:46:50.962Z,17.75
2017-12-02T08:47:53.524Z,18.70
2017-12-02T08:48:56.038Z,18.83
2017-12-02T08:49:58.548Z,17.83
2017-12-02T08:51:01.122Z,16.52
2017-12-02T08:52:03.649Z,16.58
2017-12-02T08:53:06.935Z,17.15
2017-12-02T08:54:10.224Z,17.35
2017-12-02T08:55:12.746Z,18.62
2017-12-02T08:56:15.321Z,17.60
2017-12-02T08:57:17.842Z,18.55
2017-12-02T08:58:20.357Z,17.50
2017-12-02T08:59:22.883Z,18.40
2017-12-02T09:01:34.454Z,17.33
2017-12-02T09:02:36.974Z,17.75
2017-12-02T09:03:39.631Z,16.73
2017-12-02T09:04:42.153Z,17.92
2017-12-02T09:05:44.670Z,17.12
2017-12-02T09:06:47.224Z,16.15
2017-12-02T09:07:49.750Z,17.30
2017-12-02T09:08:52.265Z,16.20
2017-12-02T09:09:54.793Z,17.25
2017-12-02T09:10:57.356Z,17.48
2017-12-02T09:11:59.896Z,16.05
2017-12-02T09:13:03.213Z,18.42
2017-12-02T09:14:05.782Z,18.40
2017-12-02T09:15:08.297Z,17.48
2017-12-02T09:16:11.578Z,17.30
2017-12-02T09:17:14.151Z,16.45
2017-12-02T09:18:17.441Z,18.37
2017-12-02T09:19:20.771Z,18.37
2017-12-02T09:20:23.289Z,20.00
2017-12-02T09:21:26.569Z,21.20
2017-12-02T09:22:29.857Z,20.17
2017-12-02T09:23:33.143Z,20.15
2017-12-02T09:24:36.469Z,21.27
2017-12-02T09:25:38.982Z,19.15
2017-12-02T09:26:42.265Z,20.30
2017-12-02T09:27:45.546Z,20.17
2017-12-02T09:28:48.065Z,20.95
2017-12-02T09:29:50.625Z,20.45
2017-12-02T09:30:53.190Z,19.70
2017-12-02T09:31:55.710Z,20.02
2017-12-02T09:32:58.224Z,19.58
2017-12-02T09:34:00.740Z,21.45
2017-12-02T09:35:03.261Z,18.52
2017-12-02T09:36:05.829Z,20.50
2017-12-02T09:37:08.341Z,19.40
2017-12-02T09:38:10.865Z,20.45
2017-12-02T09:39:13.398Z,19.77
2017-12-02T09:40:15.921Z,19.90
2017-12-02T09:41:18.491Z,20.85
2017-12-02T09:42:21.260Z,18.77
2017-12-02T09:43:23.829Z,17.17
2017-12-02T09:44:26.363Z,16.83
2017-12-02T09:45:28.880Z,17.85
2017-12-02T09:46:32.209Z,17.75
2017-12-02T09:47:34.725Z,17.55
2017-12-02T09:48:37.240Z,15.90
2017-12-02T09:49:39.750Z,17.30
2017-12-02T09:50:42.318Z,18.10
2017-12-02T09:51:45.610Z,17.25
2017-12-02T09:52:48.913Z,18.48
2017-12-02T09:53:51.448Z,18.60
2017-12-02T09:54:53.963Z,17.98
2017-12-02T09:55:56.528Z,17.73
2017-12-02T09:56:59.050Z,15.98
2017-12-02T09:58:01.566Z,17.33
2017-12-02T09:59:04.082Z,17.85
2017-12-02T10:00:06.601Z,17.73
2017-12-02T10:01:09.169Z,17.70
2017-12-02T10:02:11.691Z,17.58
2017-12-02T10:03:14.982Z,17.35
2017-12-02T10:04:17.529Z,17.12
2017-12-02T10:05:20.062Z,16.87
2017-12-02T10:06:22.637Z,17.20
2017-12-02T10:07:25.159Z,19.10
2017-12-02T10:08:27.825Z,18.75
2017-12-02T10:09:30.351Z,18.60
2017-12-02T10:10:32.873Z,19.55
2017-12-02T10:11:35.431Z,17.00
2017-12-02T10:12:37.945Z,19.08
2017-12-02T10:13:40.510Z,18.67
2017-12-02T10:14:43.013Z,17.33
2017-12-02T10:15:46.301Z,16.55
2017-12-02T10:16:48.958Z,18.30
2017-12-02T10:17:52.268Z,17.05
2017-12-02T10:18:54.781Z,18.10
2017-12-02T10:19:57.301Z,15.50
2017-12-02T10:20:59.966Z,15.75
2017-12-02T10:22:02.534Z,15.75
2017-12-02T10:23:05.085Z,14.95
2017-12-02T10:24:07.616Z,14.40
2017-12-02T10:25:10.901Z,14.65
2017-12-02T10:26:13.421Z,16.98
2017-12-02T10:27:15.979Z,14.82
2017-12-02T10:28:18.501Z,15.07
2017-12-02T10:29:21.022Z,15.80
2017-12-02T10:30:23.538Z,14.55
2017-12-02T10:31:26.065Z,14.52
2017-12-02T10:32:28.634Z,15.10
2017-12-02T10:33:31.157Z,13.93
2017-12-02T10:34:34.445Z,14.02
2017-12-02T10:35:36.969Z,12.73
2017-12-02T10:36:39.501Z,14.45
2017-12-02T10:37:42.052Z,15.65
2017-12-02T10:38:44.575Z,14.68
2017-12-02T10:39:47.113Z,14.85
2017-12-02T10:40:49.646Z,14.00
2017-12-02T10:41:52.173Z,13.55
2017-12-02T10:42:54.741Z,14.07
2017-12-02T10:43:57.260Z,13.52
2017-12-02T10:44:59.777Z,14.05
2017-12-02T10:46:02.289Z,12.77
2017-12-02T10:47:04.820Z,12.90
2017-12-02T10:48:08.137Z,13.98
2017-12-02T10:49:10.668Z,12.18
2017-12-02T10:50:13.962Z,13.68
2017-12-02T10:51:17.257Z,12.60
2017-12-02T10:52:19.786Z,12.85
2017-12-02T10:53:23.134Z,12.70
2017-12-02T10:54:25.736Z,14.38
2017-12-02T10:55:28.270Z,13.85
2017-12-02T10:56:30.810Z,14.60
2017-12-02T10:57:33.335Z,14.90
2017-12-02T10:58:35.879Z,14.87
2017-12-02T10:59:38.491Z,13.75
2017-12-02T11:00:41.776Z,15.02
2017-12-02T11:01:45.070Z,16.60
2017-12-02T11:02:48.349Z,13.55
2017-12-02T11:03:51.635Z,14.82
2017-12-02T11:04:55.050Z,15.38
2017-12-02T11:05:57.568Z,15.68
2017-12-02T11:07:00.093Z,15.70
2017-12-02T11:08:02.618Z,12.88
2017-12-02T11:09:05.906Z,15.23
2017-12-02T11:10:08.465Z,18.95
2017-12-02T11:11:11.757Z,14.68
2017-12-02T11:12:15.046Z,14.35
2017-12-02T11:13:17.573Z,15.05
2017-12-02T11:14:20.144Z,14.38
2017-12-02T11:15:22.664Z,13.52
2017-12-02T11:16:25.197Z,16.10
2017-12-02T11:17:28.486Z,13.62
2017-12-02T11:18:31.782Z,15.63
2017-12-02T11:19:34.346Z,13.25
2017-12-02T11:20:36.866Z,15.13
2017-12-02T11:21:39.390Z,13.88
2017-12-02T11:22:41.918Z,13.93
2017-12-02T11:23:45.202Z,14.82
2017-12-02T11:24:48.530Z,14.23
2017-12-02T11:25:51.053Z,15.15
2017-12-02T11:26:54.341Z,15.82
2017-12-02T11:27:57.634Z,15.10
2017-12-02T11:29:00.925Z,16.23
2017-12-02T11:30:03.498Z,15.32
2017-12-02T11:31:06.020Z,15.73
2017-12-02T11:32:08.546Z,14.23
2017-12-02T11:33:11.104Z,14.77
2017-12-02T11:34:13.617Z,14.57
2017-12-02T11:35:16.193Z,14.70
2017-12-02T11:36:18.728Z,15.27
2017-12-02T11:37:21.253Z,14.70
2017-12-02T11:38:23.769Z,14.55
2017-12-02T11:39:26.284Z,15.68
2017-12-02T11:40:28.943Z,16.27
2017-12-02T11:41:32.230Z,14.63
2017-12-02T11:42:35.527Z,15.18
2017-12-02T11:43:38.052Z,15.50
2017-12-02T11:44:40.572Z,14.65
2017-12-02T11:45:43.141Z,15.80
2017-12-02T11:46:45.669Z,13.43
2017-12-02T11:47:48.959Z,13.18
2017-12-02T11:48:52.246Z,14.87
2017-12-02T11:49:55.533Z,13.75
2017-12-02T11:50:58.868Z,14.80
2017-12-02T11:52:01.401Z,15.07
2017-12-02T11:53:03.929Z,14.32
2017-12-02T11:54:07.220Z,13.45
2017-12-02T11:55:10.514Z,12.52
2017-12-02T11:56:13.857Z,14.15
2017-12-02T11:57:16.396Z,12.65
2017-12-02T11:58:18.920Z,11.25
2017-12-02T11:59:22.220Z,12.98
2017-12-02T12:00:24.745Z,13.95
2017-12-02T12:01:27.316Z,12.05
2017-12-02T12:02:29.852Z,11.30
2017-12-02T12:03:32.381Z,12.15
2017-12-02T12:04:35.676Z,11.52
2017-12-02T12:05:38.250Z,11.95
2017-12-02T12:06:40.813Z,11.55
2017-12-02T12:07:43.332Z,12.60
2017-12-02T12:08:45.874Z,13.23
2017-12-02T12:09:49.186Z,13.57
2017-12-02T12:10:52.593Z,12.95
2017-12-02T12:11:55.909Z,12.95
2017-12-02T12:12:58.429Z,13.45
2017-12-02T12:14:00.989Z,13.23
2017-12-02T12:15:03.518Z,12.23
2017-12-02T12:16:06.049Z,12.55
2017-12-02T12:17:08.575Z,13.00
2017-12-02T12:18:12.601Z,13.02
2017-12-02T12:19:15.925Z,10.90
2017-12-02T12:20:18.454Z,11.23
2017-12-02T12:21:21.755Z,9.68
2017-12-02T12:22:24.277Z,10.25
2017-12-02T12:23:26.809Z,10.80
2017-12-02T12:24:29.373Z,11.10
2017-12-02T12:25:31.896Z,10.02
2017-12-02T12:26:35.189Z,11.00
2017-12-02T12:27:38.661Z,10.85
2017-12-02T12:28:41.182Z,11.07
2017-12-02T12:29:43.750Z,8.70
2017-12-02T12:30:46.269Z,10.13
2017-12-02T12:31:49.548Z,9.75
2017-12-02T12:32:52.064Z,10.50
2017-12-02T12:33:54.610Z,12.05
2017-12-02T12:34:57.170Z,10.15
2017-12-02T12:35:59.692Z,8.98
2017-12-02T12:38:11.133Z,9.93
2017-12-02T12:39:13.670Z,10.27
2017-12-02T12:40:16.982Z,9.65
2017-12-02T12:41:19.533Z,9.50
2017-12-02T12:42:22.050Z,9.80
2017-12-02T12:43:24.576Z,10.05
2017-12-02T12:44:27.136Z,7.97
2017-12-02T12:45:29.667Z,8.93
2017-12-02T12:46:32.198Z,9.38
2017-12-02T12:47:34.759Z,10.05
2017-12-02T12:48:37.297Z,9.88
2017-12-02T12:49:39.814Z,9.43
2017-12-02T12:50:43.258Z,9.32
2017-12-02T12:51:45.930Z,10.52
2017-12-02T12:52:48.488Z,9.68
2017-12-02T12:53:51.010Z,9.30
2017-12-02T12:54:53.525Z,9.02
2017-12-02T12:55:56.038Z,8.68
2017-12-02T12:56:59.347Z,8.43
2017-12-02T12:58:02.678Z,7.15
2017-12-02T12:59:05.194Z,7.70
2017-12-02T13:00:08.477Z,7.60
2017-12-02T13:01:11.781Z,7.07
2017-12-02T13:02:14.310Z,7.20
2017-12-02T13:03:16.873Z,8.60
2017-12-02T13:04:19.404Z,8.93
2017-12-02T13:05:21.917Z,7.70
2017-12-02T13:06:24.441Z,8.90
2017-12-02T13:07:26.958Z,8.23
2017-12-02T13:08:30.274Z,8.35
2017-12-02T13:09:32.790Z,7.82
2017-12-02T13:10:35.305Z,8.05
2017-12-02T13:11:37.821Z,8.15
2017-12-02T13:12:40.389Z,7.70
2017-12-02T13:13:42.905Z,8.43
2017-12-02T13:14:45.417Z,8.57
2017-12-02T13:15:47.950Z,7.87
2017-12-02T13:16:50.463Z,8.38
2017-12-02T13:17:53.834Z,8.32
2017-12-02T13:18:56.353Z,7.03
2017-12-02T13:19:58.873Z,8.40
2017-12-02T13:21:01.393Z,6.75
2017-12-02T13:22:03.913Z,7.97
2017-12-02T13:23:06.465Z,7.57
2017-12-02T13:24:08.986Z,7.80
2017-12-02T13:25:11.526Z,8.38
2017-12-02T13:26:14.809Z,8.40
2017-12-02T13:27:18.103Z,8.15
2017-12-02T13:28:20.693Z,7.90
2017-12-02T13:29:23.198Z,7.45
2017-12-02T13:30:25.717Z,7.60
2017-12-02T13:31:28.335Z,7.57
2017-12-02T13:32:30.858Z,8.52